Terminal Aerodrome Forecast
Issued by NWS

Current Version | Previous Version | Graphics & Text | Print | Product List | Glossary On
Versions: 1 2 3 4 5 6 7 8 9 10 11 12 13 14 15 16 17 18 19 20
000
FTUS41 KILN 012200 AAC
TAFLUK
TAF AMD
KLUK 012225Z 0122/0218 VRB04KT 2SM BR VCSH OVC012
      TEMPO 0123/0202 1SM -RASN OVC008
     FM020400 30008KT P6SM OVC018
     FM021400 36005KT P6SM SCT025
      TEMPO 0215/0218 BKN025=

USA.gov is the U.S. government's official web portal to all federal, state and local government web resources and services.